createdAt,value
2018-06-10T00:01:24.917Z,5.53
2018-06-10T00:03:53.545Z,5.23
2018-06-10T00:06:22.098Z,4.93
2018-06-10T00:08:50.510Z,5.00
2018-06-10T00:11:18.897Z,5.23
2018-06-10T00:13:47.283Z,5.10
2018-06-10T00:16:15.702Z,5.50
2018-06-10T00:18:44.330Z,5.37
2018-06-10T00:21:12.807Z,5.33
2018-06-10T00:23:41.148Z,5.50
2018-06-10T00:26:09.665Z,5.03
2018-06-10T00:28:43.350Z,5.83
2018-06-10T00:31:11.736Z,5.97
2018-06-10T00:33:40.218Z,5.40
2018-06-10T00:36:08.944Z,4.93
2018-06-10T00:38:37.349Z,6.50
2018-06-10T00:41:05.753Z,5.67
2018-06-10T00:43:34.146Z,5.83
2018-06-10T00:46:02.517Z,6.60
2018-06-10T00:48:30.887Z,6.60
2018-06-10T00:50:59.376Z,6.60
2018-06-10T00:53:28.000Z,5.67
2018-06-10T00:55:56.444Z,6.30
2018-06-10T00:58:24.968Z,6.93
2018-06-10T01:00:53.414Z,6.90
2018-06-10T01:03:21.874Z,6.17
2018-06-10T01:05:50.472Z,6.33
2018-06-10T01:08:18.926Z,6.03
2018-06-10T01:10:47.338Z,6.83
2018-06-10T01:13:15.738Z,7.60
2018-06-10T01:15:44.138Z,6.43
2018-06-10T01:18:12.597Z,6.37
2018-06-10T01:20:41.082Z,7.17
2018-06-10T01:23:09.428Z,8.27
2018-06-10T01:25:37.836Z,7.03
2018-06-10T01:28:06.269Z,7.30
2018-06-10T01:30:34.604Z,8.13
2018-06-10T01:33:03.008Z,7.20
2018-06-10T01:35:31.546Z,7.40
2018-06-10T01:37:59.904Z,7.67
2018-06-10T01:40:28.305Z,7.77
2018-06-10T01:42:56.656Z,6.33
2018-06-10T01:45:25.040Z,5.87
2018-06-10T01:47:53.341Z,6.00
2018-06-10T01:50:21.668Z,6.43
2018-06-10T01:52:50.003Z,6.47
2018-06-10T01:55:18.376Z,6.50
2018-06-10T01:57:46.908Z,5.70
2018-06-10T02:00:15.257Z,6.80
2018-06-10T02:02:43.575Z,6.30
2018-06-10T02:05:11.870Z,6.50
2018-06-10T02:07:40.402Z,6.10
2018-06-10T02:10:09.213Z,5.63
2018-06-10T02:12:37.569Z,6.37
2018-06-10T02:15:05.839Z,5.60
2018-06-10T02:17:34.220Z,5.50
2018-06-10T02:20:02.590Z,5.77
2018-06-10T02:22:30.940Z,8.00
2018-06-10T02:24:59.406Z,5.47
2018-06-10T02:27:27.821Z,7.27
2018-06-10T02:29:56.483Z,6.17
2018-06-10T02:32:24.896Z,6.20
2018-06-10T02:34:53.339Z,5.17
2018-06-10T02:37:21.769Z,4.97
2018-06-10T02:39:50.205Z,5.67
2018-06-10T02:42:18.230Z,5.43
2018-06-10T02:44:46.614Z,5.20
2018-06-10T02:47:15.587Z,4.67
2018-06-10T02:49:44.005Z,5.10
2018-06-10T02:52:12.413Z,5.53
2018-06-10T02:54:40.865Z,5.03
2018-06-10T02:57:09.210Z,4.87
2018-06-10T02:59:37.585Z,4.93
2018-06-10T03:02:06.020Z,5.33
2018-06-10T03:04:34.300Z,5.13
2018-06-10T03:07:02.676Z,4.83
2018-06-10T03:09:31.012Z,4.67
2018-06-10T03:11:59.352Z,4.63
2018-06-10T03:14:27.761Z,5.07
2018-06-10T03:16:56.158Z,6.13
2018-06-10T03:19:24.496Z,5.00
2018-06-10T03:21:52.890Z,5.80
2018-06-10T03:24:21.239Z,5.17
2018-06-10T03:26:49.594Z,5.20
2018-06-10T03:29:18.421Z,5.30
2018-06-10T03:31:46.791Z,5.23
2018-06-10T03:34:15.193Z,5.00
2018-06-10T03:36:43.584Z,6.70
2018-06-10T03:39:12.017Z,5.90
2018-06-10T03:41:40.080Z,5.00
2018-06-10T03:44:08.456Z,5.90
2018-06-10T03:46:36.800Z,5.40
2018-06-10T03:49:05.197Z,4.90
2018-06-10T03:51:33.545Z,5.83
2018-06-10T03:54:01.881Z,4.90
2018-06-10T03:56:30.316Z,5.00
2018-06-10T03:58:58.624Z,5.03
2018-06-10T04:01:26.986Z,5.27
2018-06-10T04:03:55.438Z,5.30
2018-06-10T04:06:23.815Z,5.57
2018-06-10T04:08:52.204Z,4.97
2018-06-10T04:11:20.596Z,5.10
2018-06-10T04:13:48.912Z,5.40
2018-06-10T04:16:17.306Z,4.97
2018-06-10T04:18:45.703Z,5.70
2018-06-10T04:21:14.076Z,5.70
2018-06-10T04:23:42.439Z,5.20
2018-06-10T04:26:10.836Z,6.20
2018-06-10T04:28:39.209Z,5.73
2018-06-10T04:31:07.610Z,6.40
2018-06-10T04:33:35.977Z,5.10
2018-06-10T04:36:04.416Z,5.37
2018-06-10T04:38:32.507Z,6.20
2018-06-10T04:41:00.852Z,5.80
2018-06-10T04:43:29.286Z,5.57
2018-06-10T04:45:57.716Z,5.50
2018-06-10T04:48:26.087Z,6.33
2018-06-10T04:50:54.524Z,4.90
2018-06-10T04:53:22.911Z,4.90
2018-06-10T04:55:51.289Z,5.70
2018-06-10T04:58:19.644Z,5.13
2018-06-10T05:00:48.160Z,5.00
2018-06-10T05:03:16.619Z,5.50
2018-06-10T05:05:45.058Z,5.13
2018-06-10T05:08:13.363Z,6.47
2018-06-10T05:10:41.756Z,7.00
2018-06-10T05:13:10.144Z,5.03
2018-06-10T05:15:38.630Z,5.13
2018-06-10T05:18:07.006Z,5.70
2018-06-10T05:20:35.426Z,4.80
2018-06-10T05:23:03.794Z,5.13
2018-06-10T05:25:32.248Z,5.30
2018-06-10T05:28:00.924Z,5.43
2018-06-10T05:30:29.304Z,5.73
2018-06-10T05:32:57.725Z,6.40
2018-06-10T05:35:26.055Z,6.77
2018-06-10T05:37:54.400Z,5.57
2018-06-10T05:40:22.842Z,5.30
2018-06-10T05:42:51.364Z,5.00
2018-06-10T05:45:19.699Z,5.60
2018-06-10T05:47:48.062Z,5.43
2018-06-10T05:50:16.423Z,5.47
2018-06-10T05:52:44.765Z,4.63
2018-06-10T05:55:13.124Z,5.20
2018-06-10T05:57:41.489Z,5.67
2018-06-10T06:00:09.936Z,5.60
2018-06-10T06:02:38.241Z,6.93
2018-06-10T06:05:06.600Z,5.83
2018-06-10T06:07:34.929Z,5.37
2018-06-10T06:10:03.308Z,6.23
2018-06-10T06:12:31.661Z,6.13
2018-06-10T06:15:00.010Z,7.83
2018-06-10T06:17:28.497Z,5.37
2018-06-10T06:19:56.924Z,6.33
2018-06-10T06:22:25.284Z,5.97
2018-06-10T06:24:53.647Z,6.20
2018-06-10T06:27:22.074Z,5.70
2018-06-10T06:29:50.552Z,5.60
2018-06-10T06:32:18.934Z,5.90
2018-06-10T06:34:47.371Z,6.20
2018-06-10T06:37:15.708Z,6.73
2018-06-10T06:39:44.136Z,6.17
2018-06-10T06:42:12.463Z,5.43
2018-06-10T06:44:41.317Z,6.63
2018-06-10T06:47:09.716Z,6.37
2018-06-10T06:49:38.093Z,7.53
2018-06-10T06:52:06.746Z,5.77
2018-06-10T06:54:35.258Z,6.47
2018-06-10T06:57:03.601Z,6.77
2018-06-10T06:59:31.954Z,6.20
2018-06-10T07:02:00.348Z,5.87
2018-06-10T07:04:28.932Z,6.70
2018-06-10T07:06:57.349Z,6.10
2018-06-10T07:09:26.164Z,6.13
2018-06-10T07:11:54.697Z,5.87
2018-06-10T07:14:22.768Z,6.80
2018-06-10T07:16:53.910Z,6.77
2018-06-10T07:19:22.948Z,6.43
2018-06-10T07:21:51.645Z,6.50
2018-06-10T07:24:20.070Z,6.60
2018-06-10T07:26:48.449Z,5.83
2018-06-10T07:29:16.854Z,7.30
2018-06-10T07:31:45.325Z,6.03
2018-06-10T07:34:13.779Z,6.83
2018-06-10T07:36:42.275Z,5.60
2018-06-10T07:39:10.660Z,5.43
2018-06-10T07:41:39.063Z,6.60
2018-06-10T07:44:08.103Z,5.90
2018-06-10T07:46:36.473Z,5.67
2018-06-10T07:49:04.921Z,6.43
2018-06-10T07:51:36.865Z,5.57
2018-06-10T07:54:05.592Z,7.03
2018-06-10T07:56:35.530Z,5.60
2018-06-10T07:59:05.676Z,6.23
2018-06-10T08:01:34.101Z,6.93
2018-06-10T08:04:02.673Z,6.23
2018-06-10T08:06:31.116Z,6.53
2018-06-10T08:08:59.540Z,5.70
2018-06-10T08:11:28.007Z,6.60
2018-06-10T08:13:56.791Z,6.70
2018-06-10T08:16:25.709Z,6.17
2018-06-10T08:18:54.256Z,6.70
2018-06-10T08:21:24.054Z,5.43
2018-06-10T08:23:54.426Z,5.57
2018-06-10T08:26:22.893Z,5.77
2018-06-10T08:28:51.342Z,6.07
2018-06-10T08:31:19.680Z,6.30
2018-06-10T08:33:48.058Z,6.43
2018-06-10T08:36:16.470Z,6.47
2018-06-10T08:38:45.041Z,6.00
2018-06-10T08:41:13.490Z,6.07
2018-06-10T08:43:41.888Z,6.30
2018-06-10T08:46:10.321Z,5.87
2018-06-10T08:48:38.758Z,6.03
2018-06-10T08:51:07.246Z,6.33
2018-06-10T08:53:35.544Z,7.10
2018-06-10T08:56:04.088Z,6.57
2018-06-10T08:58:32.484Z,6.27
2018-06-10T09:01:00.957Z,6.63
2018-06-10T09:03:29.434Z,6.67
2018-06-10T09:05:57.826Z,6.20
2018-06-10T09:08:26.306Z,6.70
2018-06-10T09:13:31.302Z,5.97
2018-06-10T09:15:59.841Z,6.60
2018-06-10T09:18:29.510Z,7.17
2018-06-10T09:20:57.891Z,6.27
2018-06-10T09:23:26.254Z,6.43
2018-06-10T09:25:54.656Z,5.93
2018-06-10T09:28:23.070Z,5.93
2018-06-10T09:30:51.559Z,5.20
2018-06-10T09:33:19.929Z,5.87
2018-06-10T09:35:48.414Z,5.63
2018-06-10T09:38:16.979Z,5.63
2018-06-10T09:40:45.833Z,5.90
2018-06-10T09:43:14.937Z,5.57
2018-06-10T09:45:43.292Z,5.33
2018-06-10T09:48:12.308Z,5.57
2018-06-10T09:50:40.767Z,4.93
2018-06-10T09:53:11.838Z,5.20
2018-06-10T09:55:40.521Z,6.62
2018-06-10T09:58:09.114Z,6.90
2018-06-10T10:00:38.481Z,4.90
2018-06-10T10:03:06.972Z,6.67
2018-06-10T10:05:36.158Z,7.23
2018-06-10T10:08:04.945Z,7.17
2018-06-10T10:10:33.410Z,6.60
2018-06-10T10:13:02.307Z,11.20
2018-06-10T10:15:31.736Z,7.17
2018-06-10T10:18:00.232Z,6.07
2018-06-10T10:20:28.415Z,6.43
2018-06-10T10:22:57.286Z,6.40
2018-06-10T10:25:25.746Z,5.60
2018-06-10T10:27:54.292Z,5.70
2018-06-10T10:30:22.902Z,5.77
2018-06-10T10:32:52.442Z,5.40
2018-06-10T10:35:20.886Z,5.33
2018-06-10T10:37:54.354Z,4.83
2018-06-10T10:40:22.794Z,6.23
2018-06-10T10:42:51.266Z,5.60
2018-06-10T10:45:19.733Z,5.60
2018-06-10T10:47:48.201Z,6.40
2018-06-10T10:50:16.634Z,5.60
2018-06-10T10:52:45.092Z,6.47
2018-06-10T10:55:13.585Z,5.60
2018-06-10T10:57:42.281Z,5.93
2018-06-10T11:00:11.716Z,5.40
2018-06-10T11:02:40.173Z,6.63
2018-06-10T11:05:08.593Z,6.97
2018-06-10T11:07:39.120Z,6.50
2018-06-10T11:10:07.666Z,7.07
2018-06-10T11:12:36.058Z,6.57
2018-06-10T11:15:05.193Z,6.83
2018-06-10T11:17:35.665Z,6.63
2018-06-10T11:20:04.875Z,6.40
2018-06-10T11:22:33.358Z,6.92
2018-06-10T11:25:01.862Z,10.60
2018-06-10T11:27:31.472Z,7.60
2018-06-10T11:30:00.711Z,7.77
2018-06-10T11:32:29.109Z,6.30
2018-06-10T11:34:57.523Z,6.53
2018-06-10T11:37:26.821Z,7.87
2018-06-10T11:39:55.220Z,9.33
2018-06-10T11:42:23.710Z,13.73
2018-06-10T11:44:52.099Z,13.87
2018-06-10T11:47:20.506Z,10.93
2018-06-10T11:49:48.890Z,7.63
2018-06-10T11:52:17.342Z,6.77
2018-06-10T11:54:45.689Z,7.53
2018-06-10T11:57:14.054Z,7.37
2018-06-10T11:59:45.588Z,6.17
2018-06-10T12:02:13.981Z,6.60
2018-06-10T12:04:42.329Z,7.17
2018-06-10T12:07:10.798Z,7.47
2018-06-10T12:09:39.154Z,7.30
2018-06-10T12:12:07.552Z,5.83
2018-06-10T12:14:35.940Z,7.10
2018-06-10T12:17:04.548Z,5.73
2018-06-10T12:19:32.980Z,5.20
2018-06-10T12:22:01.481Z,8.50
2018-06-10T12:24:29.888Z,6.80
2018-06-10T12:26:58.343Z,7.90
2018-06-10T12:29:27.141Z,8.83
2018-06-10T12:31:55.504Z,7.60
2018-06-10T12:34:23.908Z,6.53
2018-06-10T12:36:52.320Z,6.93
2018-06-10T12:39:20.653Z,6.53
2018-06-10T12:41:49.054Z,6.37
2018-06-10T12:44:17.984Z,7.30
2018-06-10T12:46:46.540Z,8.67
2018-06-10T12:49:14.910Z,7.73
2018-06-10T12:51:43.346Z,8.77
2018-06-10T12:54:11.805Z,9.53
2018-06-10T12:56:40.160Z,8.63
2018-06-10T12:59:08.625Z,23.60
2018-06-10T13:01:37.021Z,32.50
2018-06-10T13:04:05.590Z,18.07
2018-06-10T13:06:34.030Z,20.03
2018-06-10T13:09:02.386Z,10.80
2018-06-10T13:11:30.752Z,9.17
2018-06-10T13:13:59.206Z,8.90
2018-06-10T13:16:27.636Z,7.13
2018-06-10T13:18:56.109Z,6.77
2018-06-10T13:21:24.498Z,6.63
2018-06-10T13:23:53.586Z,6.97
2018-06-10T13:26:25.061Z,7.40
2018-06-10T13:28:54.304Z,8.70
2018-06-10T13:31:22.815Z,9.43
2018-06-10T13:33:51.333Z,7.20
2018-06-10T13:36:19.825Z,7.17
2018-06-10T13:38:48.294Z,6.90
2018-06-10T13:41:17.150Z,8.10
2018-06-10T13:43:49.739Z,7.87
2018-06-10T13:46:18.184Z,12.07
2018-06-10T13:48:46.636Z,13.70
2018-06-10T13:51:15.029Z,6.57
2018-06-10T13:53:43.475Z,6.37
2018-06-10T13:56:11.899Z,5.80
2018-06-10T13:58:40.901Z,7.00
2018-06-10T14:01:09.642Z,5.87
2018-06-10T14:03:38.285Z,6.03
2018-06-10T14:06:08.163Z,6.10
2018-06-10T14:08:37.580Z,6.47
2018-06-10T14:11:06.170Z,6.53
2018-06-10T14:13:35.031Z,6.10
2018-06-10T14:16:03.518Z,5.13
2018-06-10T14:18:31.893Z,5.47
2018-06-10T14:21:00.399Z,5.97
2018-06-10T14:23:28.797Z,6.53
2018-06-10T14:25:58.385Z,5.93
2018-06-10T14:28:26.865Z,6.07
2018-06-10T14:30:55.940Z,5.70
2018-06-10T14:33:24.561Z,4.60
2018-06-10T14:35:53.001Z,5.83
2018-06-10T14:38:22.520Z,6.13
2018-06-10T14:40:51.088Z,5.87
2018-06-10T14:43:19.454Z,5.90
2018-06-10T14:45:47.918Z,5.90
2018-06-10T14:48:16.460Z,6.23
2018-06-10T14:50:44.915Z,5.83
2018-06-10T14:53:13.481Z,5.03
2018-06-10T14:55:44.875Z,6.37
2018-06-10T14:58:13.443Z,5.30
2018-06-10T15:00:41.954Z,5.17
2018-06-10T15:03:27.705Z,5.37
2018-06-10T15:05:56.253Z,6.00
2018-06-10T15:08:26.217Z,5.37
2018-06-10T15:10:58.093Z,4.63
2018-06-10T15:13:26.832Z,5.97
2018-06-10T15:15:58.458Z,5.73
2018-06-10T15:18:31.478Z,5.87
2018-06-10T15:21:37.420Z,6.07
2018-06-10T15:24:06.552Z,5.57
2018-06-10T15:26:35.217Z,5.67
2018-06-10T15:29:03.764Z,5.90
2018-06-10T15:31:32.245Z,5.93
2018-06-10T15:34:01.832Z,5.10
2018-06-10T15:36:30.373Z,5.77
2018-06-10T15:38:58.888Z,5.37
2018-06-10T15:41:27.791Z,6.33
2018-06-10T15:43:57.842Z,5.17
2018-06-10T15:46:26.361Z,5.53
2018-06-10T15:48:54.760Z,6.33
2018-06-10T15:51:23.226Z,5.87
2018-06-10T15:53:57.653Z,5.60
2018-06-10T15:56:26.094Z,5.80
2018-06-10T15:58:54.639Z,5.40
2018-06-10T16:01:23.259Z,5.07
2018-06-10T16:03:51.661Z,6.30
2018-06-10T16:06:27.732Z,6.03
2018-06-10T16:08:56.562Z,5.47
2018-06-10T16:11:28.020Z,5.10
2018-06-10T16:13:56.584Z,5.50
2018-06-10T16:16:28.137Z,5.37
2018-06-10T16:18:56.688Z,5.47
2018-06-10T16:21:25.226Z,5.67
2018-06-10T16:23:59.040Z,6.47
2018-06-10T16:26:27.820Z,5.40
2018-06-10T16:28:56.328Z,5.87
2018-06-10T16:31:24.788Z,5.57
2018-06-10T16:33:56.072Z,5.35
2018-06-10T16:36:32.458Z,5.37
2018-06-10T16:39:02.410Z,5.07
2018-06-10T16:41:31.180Z,5.67
2018-06-10T16:44:01.083Z,5.17
2018-06-10T16:46:30.391Z,6.00
2018-06-10T16:48:59.036Z,6.20
2018-06-10T16:51:27.622Z,5.30
2018-06-10T16:53:56.085Z,5.57
2018-06-10T16:56:28.101Z,5.50
2018-06-10T16:58:58.408Z,6.13
2018-06-10T17:01:27.902Z,6.03
2018-06-10T17:03:56.379Z,5.73
2018-06-10T17:06:28.938Z,5.37
2018-06-10T17:08:58.650Z,5.43
2018-06-10T17:11:27.118Z,5.50
2018-06-10T17:13:56.321Z,5.50
2018-06-10T17:16:25.486Z,5.93
2018-06-10T17:19:01.077Z,5.53
2018-06-10T17:21:29.562Z,5.73
2018-06-10T17:23:57.922Z,5.17
2018-06-10T17:26:27.011Z,5.07
2018-06-10T17:28:58.566Z,5.40
2018-06-10T17:31:27.413Z,6.30
2018-06-10T17:33:55.976Z,6.13
2018-06-10T17:36:24.448Z,5.63
2018-06-10T17:38:55.793Z,5.77
2018-06-10T17:41:28.152Z,5.67
2018-06-10T17:43:58.823Z,6.12
2018-06-10T17:46:27.284Z,6.97
2018-06-10T17:48:55.729Z,5.80
2018-06-10T17:51:24.400Z,5.90
2018-06-10T17:53:52.906Z,5.47
2018-06-10T17:56:21.507Z,6.80
2018-06-10T17:58:50.078Z,5.97
2018-06-10T18:01:18.554Z,5.33
2018-06-10T18:03:48.123Z,6.23
2018-06-10T18:06:16.671Z,5.93
2018-06-10T18:08:45.380Z,5.10
2018-06-10T18:11:14.073Z,5.50
2018-06-10T18:13:42.789Z,5.37
2018-06-10T18:16:17.096Z,5.40
2018-06-10T18:18:46.472Z,5.17
2018-06-10T18:21:15.253Z,5.03
2018-06-10T18:23:43.933Z,5.00
2018-06-10T18:26:12.416Z,5.47
2018-06-10T18:28:41.242Z,5.17
2018-06-10T18:31:09.921Z,5.10
2018-06-10T18:33:38.446Z,5.70
2018-06-10T18:36:06.925Z,4.80
2018-06-10T18:38:35.507Z,4.60
2018-06-10T18:41:04.009Z,5.00
2018-06-10T18:46:43.041Z,5.53
2018-06-10T18:49:11.705Z,4.70
2018-06-10T18:51:40.155Z,4.73
2018-06-10T18:54:08.772Z,4.43
2018-06-10T18:56:37.330Z,4.37
2018-06-10T18:59:06.316Z,5.07
2018-06-10T19:01:34.969Z,5.10
2018-06-10T19:04:11.868Z,4.73
2018-06-10T19:06:40.252Z,4.60
2018-06-10T19:09:09.226Z,4.53
2018-06-10T19:11:37.670Z,4.53
2018-06-10T19:14:06.112Z,4.27
2018-06-10T19:16:34.549Z,5.00
2018-06-10T19:19:02.976Z,4.60
2018-06-10T19:21:31.660Z,5.30
2018-06-10T19:24:01.010Z,3.90
2018-06-10T19:26:29.424Z,4.20
2018-06-10T19:28:57.897Z,4.30
2018-06-10T19:31:26.626Z,4.23
2018-06-10T19:33:55.510Z,3.87
2018-06-10T19:36:24.302Z,3.80
2018-06-10T19:38:52.904Z,3.90
2018-06-10T19:41:21.466Z,4.00
2018-06-10T19:43:50.987Z,4.00
2018-06-10T19:46:19.461Z,3.77
2018-06-10T19:48:49.004Z,3.83
2018-06-10T19:51:17.658Z,3.60
2018-06-10T19:53:46.347Z,3.33
2018-06-10T19:56:14.728Z,4.30
2018-06-10T19:58:43.213Z,3.40
2018-06-10T20:01:41.028Z,3.57
2018-06-10T21:23:43.405Z,2.90
2018-06-10T21:26:12.674Z,2.70
2018-06-10T21:28:41.136Z,3.10
2018-06-10T21:31:09.517Z,3.03
2018-06-10T21:33:37.992Z,2.73
2018-06-10T21:36:06.430Z,2.87
2018-06-10T21:38:34.974Z,3.10
2018-06-10T21:41:03.422Z,3.30
2018-06-10T21:43:31.872Z,3.20
2018-06-10T21:46:00.342Z,3.20
2018-06-10T21:48:32.201Z,3.03
2018-06-10T21:51:00.708Z,3.07
2018-06-10T21:53:29.080Z,3.43
2018-06-10T21:55:57.460Z,3.00
2018-06-10T21:58:25.788Z,3.07
2018-06-10T22:00:56.679Z,2.90
2018-06-10T22:03:25.186Z,3.20
2018-06-10T22:05:54.581Z,3.47
2018-06-10T22:08:22.910Z,3.40
2018-06-10T22:10:52.005Z,2.93
2018-06-10T22:13:20.542Z,3.10
2018-06-10T22:15:59.275Z,3.07
2018-06-10T22:18:27.808Z,3.30
2018-06-10T22:20:56.278Z,3.13
2018-06-10T22:23:24.709Z,3.73
2018-06-10T22:25:53.109Z,3.43
2018-06-10T22:28:21.482Z,3.23
2018-06-10T22:30:49.873Z,3.20
2018-06-10T22:33:25.858Z,3.40
2018-06-10T22:35:54.232Z,3.30
2018-06-10T22:38:22.599Z,2.87
2018-06-10T22:40:51.036Z,3.47
2018-06-10T22:43:19.513Z,3.63
2018-06-10T22:45:47.930Z,3.50
2018-06-10T22:48:16.420Z,3.37
2018-06-10T22:50:44.891Z,3.80
2018-06-10T22:55:32.081Z,3.57
2018-06-10T22:58:00.670Z,3.50
2018-06-10T23:00:29.208Z,3.43
2018-06-10T23:02:57.633Z,3.80
2018-06-10T23:05:25.990Z,3.87
2018-06-10T23:07:54.599Z,3.90
2018-06-10T23:10:23.110Z,3.90
2018-06-10T23:12:51.892Z,3.70
2018-06-10T23:15:20.413Z,3.57
2018-06-10T23:17:48.785Z,3.80
2018-06-10T23:20:17.250Z,3.50
2018-06-10T23:22:45.660Z,3.70
2018-06-10T23:25:14.216Z,3.73
2018-06-10T23:27:42.698Z,3.67
2018-06-10T23:30:11.100Z,3.80
2018-06-10T23:32:39.548Z,4.00
2018-06-10T23:35:07.922Z,3.70
2018-06-10T23:37:36.342Z,3.73
2018-06-10T23:40:04.770Z,3.80
2018-06-10T23:42:33.134Z,4.40
2018-06-10T23:45:01.485Z,3.63
2018-06-10T23:47:29.862Z,3.80
2018-06-10T23:49:58.364Z,4.10
2018-06-10T23:52:26.803Z,3.80
2018-06-10T23:54:55.204Z,3.33
2018-06-10T23:57:23.690Z,3.90
2018-06-10T23:59:52.019Z,3.63
